.
WxDataArchive / Data Records for 2011-10-28
2011-10-27 October 2011 2011-10-29

Data Records for Friday, 28 October 2011

Time	Temp	Chill	HIndex	Humid	Dewpt	 Wind 	HiWind	WindDir	Rain 	Barom 
-----	----	-----	------	-----	-----	------	------	-------	-----	----- 
00:00	36.0	36.0	36.0	89	33.1	0	0	---	0.00	30.151 
00:05	36.2	36.2	36.2	88	33.0	0	0	---	0.00	30.151 
00:10	36.0	36.0	36.0	88	32.8	0	0	---	0.00	30.151 
00:15	35.8	35.8	35.8	88	32.6	0	0	---	0.00	30.147 
00:20	35.8	35.8	35.8	88	32.6	0	0	---	0.00	30.147 
00:25	35.6	35.6	35.6	88	32.4	0	0	---	0.00	30.147 
00:30	35.6	35.6	35.6	88	32.4	0	0	---	0.00	30.145 
00:35	35.6	35.6	35.6	89	32.7	0	0	---	0.00	30.145 
00:40	35.8	35.8	35.8	89	32.9	0	0	---	0.00	30.145 
00:45	35.9	35.9	35.9	89	33.0	0	0	---	0.00	30.144 
00:50	36.0	36.0	36.0	89	33.1	0	0	---	0.00	30.144 
00:55	36.0	36.0	36.0	88	32.8	0	0	---	0.00	30.144 
01:00	36.2	36.2	36.2	88	33.0	0	0	---	0.00	30.147 
01:05	36.3	36.3	36.3	88	33.1	0	0	---	0.00	30.147 
01:10	36.5	36.5	36.5	88	33.3	0	0	---	0.00	30.147 
01:15	36.6	36.6	36.6	88	33.4	0	0	---	0.00	30.148 
01:20	36.6	36.6	36.6	88	33.4	0	0	---	0.00	30.148 
01:25	36.8	36.8	36.8	88	33.6	0	0	---	0.00	30.148 
01:30	36.8	36.8	36.8	88	33.6	0	0	---	0.00	30.150 
01:35	36.6	36.6	36.6	87	33.1	0	0	---	0.00	30.150 
01:40	36.6	36.6	36.6	87	33.1	0	0	---	0.00	30.150 
01:45	36.5	36.5	36.5	87	33.0	0	0	---	0.00	30.156 
01:50	36.2	36.2	36.2	87	32.7	0	0	---	0.00	30.156 
01:55	35.9	35.9	35.9	87	32.4	0	0	---	0.00	30.156 
02:00	35.8	35.8	35.8	87	32.3	0	0	---	0.00	30.149 
02:05	35.6	35.6	35.6	88	32.4	0	0	---	0.00	30.149 
02:10	35.5	35.5	35.5	88	32.3	0	0	---	0.00	30.149 
02:15	35.3	35.3	35.3	88	32.1	0	0	---	0.00	30.151 
02:20	35.0	35.0	35.0	88	31.8	0	0	---	0.00	30.151 
02:25	34.9	34.9	34.9	88	31.7	0	0	---	0.00	30.151 
02:30	34.6	34.6	34.6	88	31.4	0	0	---	0.00	30.158 
02:35	34.4	34.4	34.4	88	31.2	0	0	---	0.00	30.158 
02:40	34.1	34.1	34.1	88	30.9	0	0	---	0.00	30.158 
02:45	34.0	34.0	34.0	88	30.8	0	0	---	0.00	30.161 
02:50	33.8	33.8	33.8	88	30.6	0	0	---	0.00	30.161 
02:55	33.5	33.5	33.5	88	30.3	0	0	---	0.00	30.161 
03:00	33.4	33.4	33.4	88	30.2	0	0	---	0.00	30.162 
03:05	33.1	33.1	33.1	88	29.9	0	0	---	0.00	30.162 
03:10	32.9	32.9	32.9	89	30.0	0	0	---	0.00	30.162 
03:15	32.7	32.7	32.7	89	29.8	0	0	---	0.00	30.166 
03:20	32.5	32.5	32.5	89	29.6	0	0	---	0.00	30.166 
03:25	32.4	32.4	32.4	89	29.5	0	0	---	0.00	30.166 
03:30	32.2	32.2	32.2	89	29.3	0	0	---	0.00	30.166 
03:35	32.1	32.1	32.1	90	29.5	0	0	---	0.00	30.166 
03:40	31.9	31.9	31.9	90	29.3	0	0	---	0.00	30.166 
03:45	31.8	31.8	31.8	90	29.2	0	0	---	0.00	30.165 
03:50	31.6	31.6	31.6	90	29.0	0	0	---	0.00	30.165 
03:55	31.5	31.5	31.5	90	28.9	0	0	---	0.00	30.165 
04:00	31.3	31.3	31.3	90	28.7	0	0	---	0.00	30.167 
04:05	31.2	31.2	31.2	90	28.6	0	0	---	0.00	30.167 
04:10	31.0	31.0	31.0	91	28.7	0	0	---	0.00	30.167 
04:15	31.0	31.0	31.0	91	28.7	0	0	---	0.00	30.170 
04:20	30.9	30.9	30.9	91	28.6	0	0	---	0.00	30.170 
04:25	30.9	30.9	30.9	91	28.6	0	0	---	0.00	30.170 
04:30	30.7	30.7	30.7	91	28.4	0	0	---	0.00	30.171 
04:35	30.6	30.6	30.6	91	28.3	0	0	---	0.00	30.171 
04:40	30.6	30.6	30.6	91	28.3	0	0	---	0.00	30.171 
04:45	30.4	30.4	30.4	91	28.1	0	0	---	0.00	30.172 
04:50	30.4	30.4	30.4	91	28.1	0	0	---	0.00	30.172 
04:55	30.4	30.4	30.4	91	28.1	0	0	---	0.00	30.172 
05:00	30.4	30.4	30.4	92	28.4	0	0	---	0.00	30.174 
05:05	30.6	30.6	30.6	92	28.6	0	0	---	0.00	30.174 
05:10	30.6	30.6	30.6	92	28.6	0	0	---	0.00	30.174 
05:15	30.6	30.6	30.6	92	28.6	0	0	---	0.00	30.172 
05:20	30.6	30.6	30.6	92	28.6	0	0	---	0.00	30.172 
05:25	30.6	30.6	30.6	92	28.6	0	0	---	0.00	30.172 
05:30	30.6	30.6	30.6	92	28.6	0	0	---	0.00	30.177 
05:35	30.7	30.7	30.7	92	28.7	0	0	---	0.00	30.177 
05:40	30.7	30.7	30.7	92	28.7	0	0	---	0.00	30.177 
05:45	30.7	30.7	30.7	92	28.7	0	0	---	0.00	30.183 
05:50	30.7	30.7	30.7	92	28.7	0	0	---	0.00	30.183 
05:55	30.9	30.9	30.9	92	28.9	0	0	---	0.00	30.183 
06:00	30.9	30.9	30.9	92	28.9	0	0	---	0.00	30.185 
06:05	30.9	30.9	30.9	92	28.9	0	0	---	0.00	30.185 
06:10	31.0	31.0	31.0	92	29.0	0	0	---	0.00	30.185 
06:15	31.0	31.0	31.0	93	29.2	0	0	---	0.00	30.187 
06:20	31.2	31.2	31.2	93	29.4	0	0	---	0.00	30.187 
06:25	31.2	31.2	31.2	93	29.4	0	0	---	0.00	30.187 
06:30	31.2	31.2	31.2	93	29.4	0	0	---	0.00	30.192 
06:35	31.2	31.2	31.2	93	29.4	0	0	---	0.00	30.192 
06:40	31.2	31.2	31.2	93	29.4	0	0	---	0.00	30.192 
06:45	31.3	31.3	31.3	93	29.5	0	0	---	0.00	30.189 
06:50	31.3	31.3	31.3	93	29.5	0	0	---	0.00	30.189 
06:55	31.5	31.5	31.5	93	29.7	0	0	---	0.00	30.189 
07:00	31.6	31.6	31.6	93	29.8	0	0	---	0.00	30.186 
07:05	31.8	31.8	31.8	93	30.0	0	0	---	0.00	30.186 
07:10	31.9	31.9	31.9	93	30.1	0	0	---	0.00	30.186 
07:15	31.9	31.9	31.9	93	30.1	0	0	---	0.00	30.190 
07:20	31.9	31.9	31.9	93	30.1	0	0	---	0.00	30.190 
07:25	31.9	31.9	31.9	93	30.1	0	0	---	0.00	30.190 
07:30	31.9	31.9	31.9	93	30.1	0	0	---	0.00	30.195 
07:35	31.8	31.8	31.8	93	30.0	0	0	---	0.00	30.195 
07:40	31.8	31.8	31.8	93	30.0	0	0	---	0.00	30.195 
07:45	31.8	31.8	31.8	93	30.0	0	0	---	0.00	30.192 
07:50	31.8	31.8	31.8	93	30.0	0	0	---	0.00	30.192 
07:55	31.8	31.8	31.8	93	30.0	0	0	---	0.00	30.192 
08:00	31.6	31.6	31.6	93	29.8	0	0	---	0.00	30.197 
08:05	31.6	31.6	31.6	93	29.8	0	0	---	0.00	30.197 
08:10	31.5	31.5	31.5	93	29.7	0	0	---	0.00	30.197 
08:15	31.5	31.5	31.5	93	29.7	0	0	---	0.00	30.203 
08:20	31.3	31.3	31.3	93	29.5	0	0	---	0.00	30.203 
08:25	31.3	31.3	31.3	93	29.5	0	0	---	0.00	30.203 
08:30	31.2	31.2	31.2	93	29.4	0	0	---	0.00	30.208 
08:35	31.2	31.2	31.2	93	29.4	0	0	---	0.00	30.208 
08:40	31.0	31.0	31.0	93	29.2	0	0	---	0.00	30.208 
08:45	31.0	31.0	31.0	93	29.2	0	0	---	0.00	30.223 
08:50	30.9	30.9	30.9	93	29.1	0	0	---	0.00	30.223 
08:55	31.0	31.0	31.0	94	29.5	0	0	---	0.00	30.223 
09:00	31.2	31.2	31.2	94	29.7	0	0	---	0.00	30.226 
09:05	31.3	31.3	31.3	94	29.8	0	0	---	0.00	30.226 
09:10	31.6	31.6	31.6	94	30.1	0	0	---	0.00	30.226 
09:15	31.9	31.9	31.9	94	30.4	0	0	---	0.00	30.235 
09:20	32.4	32.4	32.4	94	30.9	0	0	---	0.00	30.235 
09:25	32.7	32.7	32.7	94	31.2	0	0	---	0.00	30.235 
09:30	33.2	33.2	33.2	95	31.9	0	0	---	0.00	30.238 
09:35	34.0	34.0	34.0	95	32.7	0	0	---	0.00	30.238 
09:40	34.7	34.7	34.7	95	33.4	0	0	---	0.00	30.238 
09:45	35.3	35.3	35.3	95	34.0	0	0	---	0.00	30.232 
09:50	35.9	35.9	35.9	95	34.6	0	0	---	0.00	30.232 
09:55	36.6	36.6	36.6	95	35.3	0	0	---	0.00	30.232 
10:00	37.2	37.2	37.2	95	35.9	0	0	---	0.00	30.228 
10:05	37.6	37.6	37.6	95	36.3	0	0	---	0.00	30.228 
10:10	38.2	38.2	38.2	95	36.9	0	0	---	0.00	30.228 
10:15	38.8	38.8	38.8	95	37.5	0	1	202	0.00	30.229 
10:20	39.5	39.5	39.5	94	37.9	0	1	202	0.00	30.229 
10:25	39.9	39.9	39.9	94	38.3	0	0	---	0.00	30.229 
10:30	40.3	40.3	40.3	92	38.2	0	0	---	0.00	30.225 
10:35	40.9	40.9	40.9	91	38.5	0	1	202	0.00	30.225 
10:40	41.6	41.6	41.6	88	38.3	0	2	202	0.00	30.225 
10:45	42.2	42.2	42.2	86	38.3	0	0	---	0.00	30.228 
10:50	43.2	43.2	43.2	80	37.5	0	1	202	0.00	30.228 
10:55	43.9	43.9	43.9	80	38.1	0	0	---	0.00	30.228 
11:00	44.1	44.1	44.1	75	36.7	0	1	315	0.00	30.229 
11:05	44.2	44.2	44.2	74	36.4	0	1	68	0.00	30.229 
11:10	44.9	44.9	44.9	73	36.8	0	1	68	0.00	30.229 
11:15	44.9	44.9	44.9	69	35.4	0	2	68	0.00	30.219 
11:20	44.8	44.8	44.8	68	34.9	0	2	315	0.00	30.219 
11:25	44.8	44.8	44.8	67	34.5	0	2	315	0.00	30.219 
11:30	44.9	44.9	44.9	67	34.6	0	1	315	0.00	30.213 
11:35	45.4	45.4	45.4	65	34.3	0	1	315	0.00	30.213 
11:40	45.8	45.8	45.8	65	34.7	0	1	315	0.00	30.213 
11:45	46.7	46.7	46.7	63	34.8	0	1	315	0.00	30.211 
11:50	47.0	47.0	47.0	59	33.4	0	1	315	0.00	30.211 
11:55	47.1	47.1	47.1	62	34.8	0	1	315	0.00	30.211 
12:00	46.8	46.8	46.8	61	34.1	0	2	315	0.00	30.212 
12:05	47.0	47.0	47.0	63	35.1	0	1	315	0.00	30.212 
12:10	47.4	47.4	47.4	62	35.0	0	1	315	0.00	30.212 
12:15	47.6	47.6	47.6	60	34.4	0	2	315	0.00	30.207 
12:20	47.7	47.7	47.7	62	35.3	0	2	315	0.00	30.207 
12:25	48.0	48.0	48.0	62	35.6	0	2	0	0.00	30.207 
12:30	48.0	48.0	48.0	61	35.2	0	2	0	0.00	30.204 
12:35	48.2	48.2	48.2	62	35.8	0	2	0	0.00	30.204 
12:40	48.3	48.3	48.3	62	35.9	0	2	0	0.00	30.204 
12:45	48.3	48.3	48.3	60	35.1	1	4	315	0.00	30.195 
12:50	48.3	48.3	48.3	60	35.1	1	4	315	0.00	30.195 
12:55	48.5	48.5	48.5	58	34.4	1	2	270	0.00	30.195 
13:00	48.6	48.6	48.6	58	34.5	0	2	270	0.00	30.187 
13:05	48.9	48.9	48.9	58	34.8	0	3	270	0.00	30.187 
13:10	49.2	49.2	49.2	57	34.6	0	2	270	0.00	30.187 
13:15	49.4	49.4	49.4	57	34.8	1	4	112	0.00	30.179 
13:20	49.6	49.6	49.6	58	35.4	1	3	68	0.00	30.179 
13:25	49.4	49.4	49.4	56	34.4	0	2	68	0.00	30.179 
13:30	49.1	49.1	49.1	57	34.5	0	1	68	0.00	30.168 
13:35	48.9	48.9	48.9	57	34.3	1	4	68	0.00	30.168 
13:40	48.9	48.9	48.9	56	33.9	0	1	90	0.00	30.168 
13:45	48.8	48.8	48.8	55	33.4	0	1	90	0.00	30.158 
13:50	48.9	48.9	48.9	56	33.9	0	2	90	0.00	30.158 
13:55	49.1	49.1	49.1	54	33.2	0	2	90	0.00	30.158 
14:00	49.2	49.2	49.2	54	33.3	0	3	90	0.00	30.151 
14:05	49.1	49.1	49.1	52	32.2	0	1	90	0.00	30.151 
14:10	48.9	48.9	48.9	52	32.1	0	1	90	0.00	30.151 
14:15	48.8	48.8	48.8	51	31.5	0	1	90	0.00	30.149 
14:20	48.6	48.6	48.6	52	31.8	0	1	90	0.00	30.149 
14:25	48.6	48.6	48.6	52	31.8	0	0	---	0.00	30.149 
14:30	48.8	48.8	48.8	51	31.5	0	1	90	0.00	30.145 
14:35	48.9	48.9	48.9	51	31.6	0	0	---	0.00	30.145 
14:40	49.4	49.4	49.4	54	33.5	0	3	112	0.00	30.145 
14:45	50.1	50.1	50.1	52	33.2	0	3	22	0.00	30.139 
14:50	50.8	50.8	50.8	52	33.8	0	1	22	0.00	30.139 
14:55	50.5	50.5	50.5	49	32.1	0	2	22	0.00	30.139 
15:00	49.9	49.9	49.9	49	31.5	0	1	22	0.00	30.133 
15:05	49.6	49.6	49.6	51	32.2	0	1	22	0.00	30.133 
15:10	49.2	49.2	49.2	50	31.4	0	0	---	0.00	30.133 
15:15	49.1	49.1	49.1	51	31.8	0	0	---	0.00	30.132 
15:20	48.9	48.9	48.9	50	31.1	0	0	---	0.00	30.132 
15:25	48.8	48.8	48.8	49	30.5	0	0	---	0.00	30.132 
15:30	48.9	48.9	48.9	49	30.6	0	0	---	0.00	30.125 
15:35	49.1	49.1	49.1	47	29.7	0	1	22	0.00	30.125 
15:40	49.4	49.4	49.4	48	30.5	0	0	---	0.00	30.125 
15:45	49.4	49.4	49.4	47	30.0	0	0	---	0.00	30.118 
15:50	49.5	49.5	49.5	48	30.6	0	0	---	0.00	30.118 
15:55	49.9	49.9	49.9	47	30.5	0	2	0	0.00	30.118 
16:00	50.2	50.2	50.2	46	30.2	0	2	0	0.00	30.119 
16:05	50.7	50.7	50.7	45	30.1	0	2	0	0.00	30.119 
16:10	51.0	51.0	51.0	46	31.0	0	1	0	0.00	30.119 
16:15	50.8	50.8	50.8	44	29.7	1	3	0	0.00	30.117 
16:20	50.5	50.5	50.5	45	30.0	1	3	0	0.00	30.117 
16:25	50.4	50.4	50.4	46	30.4	1	4	68	0.00	30.117 
16:30	50.2	50.2	50.2	49	31.8	0	1	68	0.00	30.115 
16:35	50.1	50.1	50.1	48	31.2	0	1	68	0.00	30.115 
16:40	50.2	50.2	50.2	46	30.2	0	2	68	0.00	30.115 
16:45	50.2	50.2	50.2	46	30.2	0	1	68	0.00	30.117 
16:50	50.2	50.2	50.2	46	30.2	0	1	68	0.00	30.117 
16:55	50.4	50.4	50.4	46	30.4	0	3	68	0.00	30.117 
17:00	50.5	50.5	50.5	47	31.0	0	3	68	0.00	30.115 
17:05	50.5	50.5	50.5	47	31.0	1	2	68	0.00	30.115 
17:10	50.4	50.4	50.4	46	30.4	0	1	68	0.00	30.115 
17:15	50.2	50.2	50.2	46	30.2	0	1	68	0.00	30.114 
17:20	49.9	49.9	49.9	49	31.5	0	0	---	0.00	30.114 
17:25	49.8	49.8	49.8	49	31.4	0	0	---	0.00	30.114 
17:30	49.5	49.5	49.5	49	31.1	0	0	---	0.00	30.116 
17:35	49.4	49.4	49.4	48	30.5	0	0	---	0.00	30.116 
17:40	49.4	49.4	49.4	50	31.5	0	0	---	0.00	30.116 
17:45	49.2	49.2	49.2	51	31.9	0	0	---	0.00	30.112 
17:50	49.1	49.1	49.1	51	31.8	0	0	---	0.00	30.112 
17:55	48.9	48.9	48.9	52	32.1	0	0	---	0.00	30.112 
18:00	48.8	48.8	48.8	51	31.5	0	0	---	0.00	30.113 
18:05	48.8	48.8	48.8	53	32.4	0	0	---	0.00	30.113 
18:10	48.6	48.6	48.6	53	32.3	0	0	---	0.00	30.113 
18:15	48.3	48.3	48.3	54	32.4	0	0	---	0.00	30.108 
18:20	48.2	48.2	48.2	55	32.8	0	0	---	0.00	30.108 
18:25	48.0	48.0	48.0	55	32.6	0	0	---	0.00	30.108 
18:30	47.7	47.7	47.7	55	32.3	0	0	---	0.00	30.106 
18:35	47.4	47.4	47.4	54	31.6	0	0	---	0.00	30.106 
18:40	47.1	47.1	47.1	54	31.3	0	0	---	0.00	30.106 
18:45	46.8	46.8	46.8	55	31.5	0	0	---	0.00	30.116 
18:50	46.7	46.7	46.7	59	33.1	0	0	---	0.00	30.116 
18:55	46.5	46.5	46.5	59	33.0	0	0	---	0.00	30.116 
19:00	46.4	46.4	46.4	61	33.7	0	0	---	0.00	30.119 
19:05	46.2	46.2	46.2	61	33.5	0	0	---	0.00	30.119 
19:10	46.2	46.2	46.2	62	33.9	0	0	---	0.00	30.119 
19:15	46.1	46.1	46.1	62	33.8	0	0	---	0.00	30.120 
19:20	46.1	46.1	46.1	64	34.6	0	0	---	0.00	30.120 
19:25	46.1	46.1	46.1	65	35.0	0	0	---	0.00	30.120 
19:30	46.0	46.0	46.0	64	34.5	0	0	---	0.00	30.118 
19:35	45.7	45.7	45.7	62	33.4	0	0	---	0.00	30.118 
19:40	45.5	45.5	45.5	63	33.6	0	0	---	0.00	30.118 
19:45	45.2	45.2	45.2	65	34.1	0	0	---	0.00	30.122 
19:50	45.1	45.1	45.1	66	34.4	0	0	---	0.00	30.122 
19:55	44.9	44.9	44.9	68	35.0	0	0	---	0.00	30.122 
20:00	44.6	44.6	44.6	68	34.7	0	0	---	0.00	30.124 
20:05	44.5	44.5	44.5	68	34.6	0	0	---	0.00	30.124 
20:10	44.2	44.2	44.2	68	34.3	0	0	---	0.00	30.124 
20:15	44.1	44.1	44.1	67	33.9	0	0	---	0.00	30.125 
20:20	44.1	44.1	44.1	68	34.2	0	0	---	0.00	30.125 
20:25	43.9	43.9	43.9	68	34.0	0	0	---	0.00	30.125 
20:30	43.8	43.8	43.8	68	33.9	0	0	---	0.00	30.124 
20:35	43.8	43.8	43.8	69	34.3	0	0	---	0.00	30.124 
20:40	43.8	43.8	43.8	68	33.9	0	0	---	0.00	30.124 
20:45	43.9	43.9	43.9	66	33.3	0	0	---	0.00	30.125 
20:50	43.9	43.9	43.9	64	32.5	0	0	---	0.00	30.125 
20:55	44.2	44.2	44.2	64	32.8	0	0	---	0.00	30.125 
21:00	44.5	44.5	44.5	63	32.7	0	1	68	0.00	30.122 
21:05	44.8	44.8	44.8	64	33.4	0	0	---	0.00	30.122 
21:10	44.9	44.9	44.9	63	33.1	0	0	---	0.00	30.122 
21:15	45.1	45.1	45.1	63	33.3	0	0	---	0.00	30.118 
21:20	45.1	45.1	45.1	62	32.9	0	0	---	0.00	30.118 
21:25	45.1	45.1	45.1	63	33.3	0	0	---	0.00	30.118 
21:30	45.1	45.1	45.1	62	32.9	0	0	---	0.00	30.116 
21:35	44.9	44.9	44.9	62	32.7	0	1	68	0.00	30.116 
21:40	44.9	44.9	44.9	61	32.3	0	1	68	0.00	30.116 
21:45	44.8	44.8	44.8	61	32.2	0	1	68	0.00	30.115 
21:50	44.8	44.8	44.8	61	32.2	0	0	---	0.00	30.115 
21:55	44.8	44.8	44.8	60	31.8	0	1	68	0.00	30.115 
22:00	44.6	44.6	44.6	60	31.6	0	1	68	0.00	30.115 
22:05	44.6	44.6	44.6	61	32.0	0	0	---	0.00	30.115 
22:10	44.5	44.5	44.5	61	31.9	0	0	---	0.00	30.115 
22:15	44.5	44.5	44.5	61	31.9	0	0	---	0.00	30.109 
22:20	44.3	44.3	44.3	62	32.1	0	0	---	0.00	30.109 
22:25	44.2	44.2	44.2	62	32.0	0	0	---	0.00	30.109 
22:30	44.1	44.1	44.1	62	31.9	0	0	---	0.00	30.110 
22:35	43.9	43.9	43.9	62	31.7	0	0	---	0.00	30.110 
22:40	43.8	43.8	43.8	62	31.6	0	0	---	0.00	30.110 
22:45	43.6	43.6	43.6	62	31.5	0	0	---	0.00	30.111 
22:50	43.5	43.5	43.5	63	31.8	0	0	---	0.00	30.111 
22:55	43.5	43.5	43.5	65	32.5	0	0	---	0.00	30.111 
23:00	43.5	43.5	43.5	64	32.1	0	0	---	0.00	30.109 
23:05	43.3	43.3	43.3	64	32.0	0	0	---	0.00	30.109 
23:10	43.3	43.3	43.3	64	32.0	0	0	---	0.00	30.109 
23:15	43.3	43.3	43.3	64	32.0	0	0	---	0.00	30.105 
23:20	43.2	43.2	43.2	64	31.9	0	0	---	0.00	30.105 
23:25	43.2	43.2	43.2	64	31.9	0	0	---	0.00	30.105 
23:30	43.1	43.1	43.1	64	31.8	0	1	68	0.00	30.101 
23:35	43.1	43.1	43.1	64	31.8	0	0	---	0.00	30.101 
23:40	42.9	42.9	42.9	64	31.6	0	0	---	0.00	30.101 
23:45	42.9	42.9	42.9	64	31.6	0	1	68	0.00	30.103 
23:50	42.9	42.9	42.9	64	31.6	0	0	---	0.00	30.103 
23:55	42.9	42.9	42.9	64	31.6	0	1	68	0.00	30.103 

CoCoRaHS
IN-AL-39
A2 Web Hosting
Creative Commons License
GoDaddy
search engine by freefind advanced

loaded 2018-11-22 05:41:25 • last modified 2010-11-18 10:43:29
Privacy PolicyDisclaimer
• wx.awcolley.com is powered by PmWiki v.2002016 •
• all content (unless otherwise noted) © 2018 A W Colley